Terminal Aerodrome Forecast
Issued by NWS

Home | Current Version | Previous Version | Text Only | Print | Product List | Glossary On
Versions: 1 2 3 4 5 6 7 8 9 10 11 12 13 14 15 16 17 18 19 20 21 22 23 24 25 26 27 28 29 30 31 32 33 34 35 36 37 38 39 40 41 42 43 44 45 46 47 48 49 50
000
FTUS43 KGRB 190528
TAFATW
TAF
KATW 190528Z 1906/2006 21007KT P6SM SKC
     FM190700 23005KT 5SM BR OVC005
     FM191200 22004KT 2SM BR OVC003
     FM191500 20005KT 5SM BR BKN006
     FM191900 19007KT 6SM BR SCT012
     FM200300 15003KT 3SM BR OVC012=

USA.gov is the U.S. government's official web portal to all federal, state and local government web resources and services.